createdAt,value
2018-12-07T00:00:24.158Z,0.00
2018-12-07T00:01:24.134Z,0.00
2018-12-07T00:02:24.141Z,0.00
2018-12-07T00:03:24.107Z,0.00
2018-12-07T00:04:24.153Z,0.00
2018-12-07T00:05:24.146Z,0.00
2018-12-07T00:06:24.078Z,0.00
2018-12-07T00:07:24.065Z,0.00
2018-12-07T00:08:24.047Z,0.00
2018-12-07T00:09:24.082Z,0.00
2018-12-07T00:10:24.069Z,0.00
2018-12-07T00:11:24.065Z,0.00
2018-12-07T00:12:24.023Z,0.00
2018-12-07T00:13:24.011Z,0.00
2018-12-07T00:14:24.015Z,0.00
2018-12-07T00:15:24.000Z,0.00
2018-12-07T00:16:23.967Z,0.00
2018-12-07T00:17:23.956Z,0.00
2018-12-07T00:18:23.953Z,0.00
2018-12-07T00:19:23.966Z,0.00
2018-12-07T00:20:23.922Z,0.00
2018-12-07T00:21:24.647Z,0.00
2018-12-07T00:22:23.911Z,0.00
2018-12-07T00:23:23.888Z,0.00
2018-12-07T00:24:23.883Z,0.00
2018-12-07T00:25:23.897Z,0.00
2018-12-07T00:26:23.848Z,0.00
2018-12-07T00:27:23.830Z,0.00
2018-12-07T00:28:23.832Z,0.00
2018-12-07T00:29:23.815Z,0.00
2018-12-07T00:30:23.839Z,0.00
2018-12-07T00:31:23.796Z,0.00
2018-12-07T00:32:23.794Z,0.00
2018-12-07T00:33:23.780Z,0.00
2018-12-07T00:34:23.766Z,0.00
2018-12-07T00:35:23.788Z,0.00
2018-12-07T00:36:23.756Z,0.00
2018-12-07T00:37:23.739Z,0.00
2018-12-07T00:38:23.717Z,0.00
2018-12-07T00:39:23.708Z,0.00
2018-12-07T00:40:23.720Z,0.00
2018-12-07T00:41:23.783Z,0.00
2018-12-07T00:42:23.689Z,0.00
2018-12-07T00:43:23.689Z,0.00
2018-12-07T00:44:23.659Z,0.00
2018-12-07T00:45:23.644Z,0.00
2018-12-07T00:46:23.651Z,0.00
2018-12-07T00:47:23.617Z,0.00
2018-12-07T00:48:23.601Z,0.00
2018-12-07T00:49:23.596Z,0.00
2018-12-07T00:50:23.590Z,0.00
2018-12-07T00:51:23.621Z,0.00
2018-12-07T00:52:23.557Z,0.00
2018-12-07T00:53:23.554Z,0.00
2018-12-07T00:54:23.555Z,0.00
2018-12-07T00:55:23.552Z,0.00
2018-12-07T00:56:23.556Z,0.00
2018-12-07T00:57:23.535Z,0.00
2018-12-07T00:58:23.492Z,0.00
2018-12-07T00:59:23.486Z,0.00
2018-12-07T01:00:23.472Z,0.00
2018-12-07T01:01:23.486Z,0.00
2018-12-07T01:02:23.479Z,0.00
2018-12-07T01:03:23.445Z,0.00
2018-12-07T01:04:23.446Z,0.00
2018-12-07T01:05:23.419Z,0.00
2018-12-07T01:06:23.418Z,0.00
2018-12-07T01:07:23.412Z,0.00
2018-12-07T01:08:23.387Z,0.00
2018-12-07T01:09:23.382Z,0.00
2018-12-07T01:10:23.368Z,0.00
2018-12-07T01:11:23.350Z,0.00
2018-12-07T01:12:23.364Z,0.00
2018-12-07T01:13:23.335Z,0.00
2018-12-07T01:14:23.332Z,0.00
2018-12-07T01:15:23.319Z,0.00
2018-12-07T01:16:23.314Z,0.00
2018-12-07T01:17:23.307Z,0.00
2018-12-07T01:18:23.313Z,0.00
2018-12-07T01:19:23.280Z,0.00
2018-12-07T01:20:23.255Z,0.00
2018-12-07T01:21:23.242Z,0.00
2018-12-07T01:22:23.227Z,0.00
2018-12-07T01:23:23.225Z,0.00
2018-12-07T01:24:23.257Z,0.00
2018-12-07T01:25:23.211Z,0.00
2018-12-07T01:26:23.187Z,0.00
2018-12-07T01:27:23.186Z,0.00
2018-12-07T01:28:23.222Z,0.00
2018-12-07T01:29:23.195Z,0.00
2018-12-07T01:30:23.144Z,0.00
2018-12-07T01:31:23.163Z,0.00
2018-12-07T01:32:23.140Z,0.00
2018-12-07T01:33:23.195Z,0.00
2018-12-07T01:34:23.101Z,0.00
2018-12-07T01:35:23.090Z,0.00
2018-12-07T01:36:23.083Z,0.00
2018-12-07T01:37:23.078Z,0.00
2018-12-07T01:38:23.094Z,0.00
2018-12-07T01:39:23.062Z,0.00
2018-12-07T01:40:23.035Z,0.00
2018-12-07T01:41:23.036Z,0.00
2018-12-07T01:42:23.013Z,0.00
2018-12-07T01:43:23.006Z,0.00
2018-12-07T01:44:22.991Z,0.00
2018-12-07T01:45:22.984Z,0.00
2018-12-07T01:46:22.988Z,0.00
2018-12-07T01:47:22.963Z,0.00
2018-12-07T01:48:22.940Z,0.00
2018-12-07T01:49:22.923Z,0.00
2018-12-07T01:50:22.939Z,0.00
2018-12-07T01:51:22.947Z,0.00
2018-12-07T01:52:22.908Z,0.00
2018-12-07T01:53:22.888Z,0.00
2018-12-07T01:54:22.868Z,0.00
2018-12-07T01:55:22.875Z,0.00
2018-12-07T01:56:22.856Z,0.00
2018-12-07T01:57:22.876Z,0.00
2018-12-07T01:58:22.827Z,0.00
2018-12-07T01:59:22.812Z,0.00
2018-12-07T02:00:22.821Z,0.00
2018-12-07T02:01:22.804Z,0.00
2018-12-07T02:02:22.818Z,0.00
2018-12-07T02:03:22.812Z,0.00
2018-12-07T02:04:22.783Z,0.00
2018-12-07T02:05:22.760Z,0.00
2018-12-07T02:06:22.746Z,0.00
2018-12-07T02:07:22.730Z,0.00
2018-12-07T02:08:23.012Z,0.00
2018-12-07T02:09:22.709Z,0.00
2018-12-07T02:10:22.699Z,0.00
2018-12-07T02:11:22.704Z,0.00
2018-12-07T02:12:22.681Z,0.00
2018-12-07T02:13:23.167Z,0.00
2018-12-07T02:14:22.676Z,0.00
2018-12-07T02:15:22.666Z,0.00
2018-12-07T02:16:22.638Z,0.00
2018-12-07T02:17:22.631Z,0.00
2018-12-07T02:18:22.621Z,0.00
2018-12-07T02:19:22.624Z,0.00
2018-12-07T02:20:22.596Z,0.00
2018-12-07T02:21:22.578Z,0.00
2018-12-07T02:22:22.576Z,0.00
2018-12-07T02:23:22.571Z,0.00
2018-12-07T02:24:22.559Z,0.00
2018-12-07T02:25:22.575Z,0.00
2018-12-07T02:26:22.527Z,0.00
2018-12-07T02:27:22.510Z,0.00
2018-12-07T02:28:22.500Z,0.00
2018-12-07T02:29:22.494Z,0.00
2018-12-07T02:30:22.490Z,0.00
2018-12-07T02:31:22.497Z,0.00
2018-12-07T02:32:22.470Z,0.00
2018-12-07T02:33:22.445Z,0.00
2018-12-07T02:34:22.439Z,0.00
2018-12-07T02:35:22.433Z,0.00
2018-12-07T02:36:22.453Z,0.00
2018-12-07T02:37:22.409Z,0.00
2018-12-07T02:38:22.390Z,0.00
2018-12-07T02:39:22.381Z,0.00
2018-12-07T02:40:22.361Z,0.00
2018-12-07T02:41:22.362Z,0.00
2018-12-07T02:42:22.370Z,0.00
2018-12-07T02:43:22.353Z,0.00
2018-12-07T02:44:22.345Z,0.00
2018-12-07T02:45:22.310Z,0.00
2018-12-07T02:46:22.304Z,0.00
2018-12-07T02:47:22.326Z,0.00
2018-12-07T02:48:22.293Z,0.00
2018-12-07T02:49:22.276Z,0.00
2018-12-07T02:50:22.261Z,0.00
2018-12-07T02:51:22.246Z,0.00
2018-12-07T02:52:22.237Z,0.00
2018-12-07T02:53:22.241Z,0.00
2018-12-07T02:54:22.224Z,0.00
2018-12-07T02:55:22.213Z,0.00
2018-12-07T02:56:22.203Z,0.00
2018-12-07T02:57:22.188Z,0.00
2018-12-07T02:58:22.201Z,0.00
2018-12-07T02:59:22.159Z,0.00
2018-12-07T03:00:22.163Z,0.00
2018-12-07T03:01:22.147Z,0.00
2018-12-07T03:02:22.122Z,0.00
2018-12-07T03:03:22.121Z,0.00
2018-12-07T03:04:22.144Z,0.00
2018-12-07T03:05:22.097Z,0.00
2018-12-07T03:06:22.106Z,0.00
2018-12-07T03:07:22.188Z,0.00
2018-12-07T03:08:22.069Z,0.00
2018-12-07T03:09:22.069Z,0.00
2018-12-07T03:10:22.070Z,0.00
2018-12-07T03:11:22.031Z,0.00
2018-12-07T03:12:22.015Z,0.00
2018-12-07T03:13:22.001Z,0.00
2018-12-07T03:14:22.006Z,0.00
2018-12-07T03:15:21.984Z,0.00
2018-12-07T03:16:21.994Z,0.00
2018-12-07T03:17:21.971Z,0.00
2018-12-07T03:18:21.963Z,0.00
2018-12-07T03:19:21.976Z,0.00
2018-12-07T03:20:21.936Z,0.00
2018-12-07T03:21:21.949Z,0.00
2018-12-07T03:22:21.905Z,0.00
2018-12-07T03:23:21.891Z,0.00
2018-12-07T03:24:21.882Z,0.00
2018-12-07T03:25:21.901Z,0.00
2018-12-07T03:26:21.904Z,0.00
2018-12-07T03:27:21.863Z,0.00
2018-12-07T03:28:21.853Z,0.00
2018-12-07T03:29:21.843Z,0.00
2018-12-07T03:30:21.813Z,0.00
2018-12-07T03:31:21.807Z,0.00
2018-12-07T03:32:21.827Z,0.00
2018-12-07T03:33:21.792Z,0.00
2018-12-07T03:34:21.784Z,0.00
2018-12-07T03:35:21.770Z,0.00
2018-12-07T03:36:21.817Z,0.00
2018-12-07T03:37:21.763Z,0.00
2018-12-07T03:38:21.740Z,0.00
2018-12-07T03:39:21.734Z,0.00
2018-12-07T03:40:21.722Z,0.00
2018-12-07T03:41:21.721Z,0.00
2018-12-07T03:42:21.717Z,0.00
2018-12-07T03:43:21.680Z,0.00
2018-12-07T03:44:21.665Z,0.00
2018-12-07T03:45:21.657Z,0.00
2018-12-07T03:46:21.652Z,0.00
2018-12-07T03:47:21.671Z,0.00
2018-12-07T03:48:21.610Z,0.00
2018-12-07T03:49:21.606Z,0.00
2018-12-07T03:50:21.610Z,0.00
2018-12-07T03:51:21.600Z,0.00
2018-12-07T03:52:21.593Z,0.00
2018-12-07T03:53:21.605Z,0.00
2018-12-07T03:54:21.556Z,0.00
2018-12-07T03:55:21.553Z,0.00
2018-12-07T03:56:21.548Z,0.00
2018-12-07T03:57:21.537Z,0.00
2018-12-07T03:58:21.511Z,0.00
2018-12-07T03:59:21.556Z,0.00
2018-12-07T04:00:21.495Z,0.00
2018-12-07T04:01:21.500Z,0.00
2018-12-07T04:02:21.475Z,0.00
2018-12-07T04:03:21.483Z,0.00
2018-12-07T04:04:21.453Z,0.00
2018-12-07T04:05:21.448Z,0.00
2018-12-07T04:06:21.420Z,0.00
2018-12-07T04:07:21.414Z,0.00
2018-12-07T04:08:21.441Z,0.00
2018-12-07T04:09:21.388Z,0.00
2018-12-07T04:10:21.382Z,0.00
2018-12-07T04:11:21.383Z,0.00
2018-12-07T04:12:21.366Z,0.00
2018-12-07T04:13:21.394Z,0.00
2018-12-07T04:14:21.340Z,0.00
2018-12-07T04:15:21.320Z,0.00
2018-12-07T04:16:21.311Z,0.00
2018-12-07T04:17:21.299Z,0.00
2018-12-07T04:18:21.301Z,0.00
2018-12-07T04:19:21.308Z,0.00
2018-12-07T04:20:21.384Z,0.00
2018-12-07T04:21:21.277Z,0.00
2018-12-07T04:22:21.252Z,0.00
2018-12-07T04:23:21.242Z,0.00
2018-12-07T04:24:21.235Z,0.00
2018-12-07T04:25:21.222Z,0.00
2018-12-07T04:26:21.224Z,0.00
2018-12-07T04:27:21.194Z,0.00
2018-12-07T04:28:21.185Z,0.00
2018-12-07T04:29:21.164Z,0.00
2018-12-07T04:30:21.180Z,0.00
2018-12-07T04:31:21.173Z,0.00
2018-12-07T04:32:21.140Z,0.00
2018-12-07T04:33:21.172Z,0.00
2018-12-07T04:34:21.127Z,0.00
2018-12-07T04:35:21.124Z,0.00
2018-12-07T04:36:21.103Z,0.00
2018-12-07T04:37:21.108Z,0.00
2018-12-07T04:38:21.200Z,0.00
2018-12-07T04:39:21.060Z,0.00
2018-12-07T04:40:21.119Z,0.00
2018-12-07T04:41:21.039Z,0.00
2018-12-07T04:42:21.058Z,0.00
2018-12-07T04:43:21.042Z,0.00
2018-12-07T04:44:21.009Z,0.00
2018-12-07T04:45:21.005Z,0.00
2018-12-07T04:46:20.985Z,0.00
2018-12-07T04:47:20.961Z,0.00
2018-12-07T04:48:20.997Z,0.00
2018-12-07T04:49:20.942Z,0.00
2018-12-07T04:50:20.948Z,0.00
2018-12-07T04:51:20.944Z,0.00
2018-12-07T04:52:20.922Z,0.00
2018-12-07T04:53:20.899Z,0.00
2018-12-07T04:54:21.036Z,0.00
2018-12-07T04:55:20.903Z,0.00
2018-12-07T04:56:20.877Z,0.00
2018-12-07T04:57:20.872Z,0.00
2018-12-07T04:58:20.871Z,0.00
2018-12-07T04:59:20.839Z,0.00
2018-12-07T05:00:20.849Z,0.00
2018-12-07T05:01:20.827Z,0.00
2018-12-07T05:02:20.815Z,0.00
2018-12-07T05:03:20.810Z,0.00
2018-12-07T05:04:20.784Z,0.00
2018-12-07T05:05:21.100Z,0.00
2018-12-07T05:06:20.754Z,0.00
2018-12-07T05:07:20.751Z,0.00
2018-12-07T05:08:20.749Z,0.00
2018-12-07T05:09:20.747Z,0.00
2018-12-07T05:10:20.759Z,0.00
2018-12-07T05:11:20.711Z,0.00
2018-12-07T05:12:20.709Z,0.00
2018-12-07T05:13:20.680Z,0.00
2018-12-07T05:14:20.682Z,0.00
2018-12-07T05:15:20.679Z,0.00
2018-12-07T05:16:20.680Z,0.00
2018-12-07T05:17:20.648Z,0.00
2018-12-07T05:18:20.631Z,0.00
2018-12-07T05:19:20.623Z,0.00
2018-12-07T05:20:20.605Z,0.00
2018-12-07T05:21:20.621Z,0.00
2018-12-07T05:22:20.595Z,0.00
2018-12-07T05:23:20.587Z,0.00
2018-12-07T05:24:20.557Z,0.00
2018-12-07T05:25:20.570Z,0.00
2018-12-07T05:26:20.567Z,0.00
2018-12-07T05:27:20.529Z,0.00
2018-12-07T05:28:20.529Z,0.00
2018-12-07T05:29:20.524Z,0.00
2018-12-07T05:30:20.488Z,0.00
2018-12-07T05:31:20.487Z,0.00
2018-12-07T05:32:20.496Z,0.00
2018-12-07T05:33:20.463Z,0.00
2018-12-07T05:34:20.469Z,0.00
2018-12-07T05:35:20.448Z,0.00
2018-12-07T05:36:20.447Z,0.00
2018-12-07T05:37:20.452Z,0.00
2018-12-07T05:38:20.436Z,0.00
2018-12-07T05:39:20.402Z,0.00
2018-12-07T05:40:20.399Z,0.00
2018-12-07T05:41:20.380Z,0.00
2018-12-07T05:42:20.395Z,0.00
2018-12-07T05:43:20.356Z,0.00
2018-12-07T05:44:20.345Z,0.00
2018-12-07T05:45:20.330Z,0.00
2018-12-07T05:46:20.327Z,0.00
2018-12-07T05:47:20.320Z,0.00
2018-12-07T05:48:23.605Z,0.00
2018-12-07T05:49:20.301Z,0.00
2018-12-07T05:50:20.275Z,0.00
2018-12-07T05:51:20.267Z,0.00
2018-12-07T05:52:20.276Z,0.00
2018-12-07T05:53:20.264Z,0.00
2018-12-07T05:54:20.242Z,0.00
2018-12-07T05:55:20.248Z,0.00
2018-12-07T05:56:20.212Z,0.00
2018-12-07T05:57:20.215Z,0.00
2018-12-07T05:58:20.223Z,0.00
2018-12-07T05:59:20.204Z,0.00
2018-12-07T06:00:20.177Z,0.00
2018-12-07T06:01:20.173Z,0.00
2018-12-07T06:02:20.146Z,0.00
2018-12-07T06:03:20.129Z,0.00
2018-12-07T06:04:20.167Z,0.00
2018-12-07T06:05:20.106Z,0.00
2018-12-07T06:06:20.118Z,0.00
2018-12-07T06:07:20.099Z,0.00
2018-12-07T06:08:20.089Z,0.00
2018-12-07T06:09:20.075Z,0.00
2018-12-07T06:10:20.092Z,0.00
2018-12-07T06:11:20.049Z,0.00
2018-12-07T06:12:20.052Z,0.00
2018-12-07T06:13:20.029Z,0.00
2018-12-07T06:14:20.017Z,0.00
2018-12-07T06:15:20.013Z,0.00
2018-12-07T06:16:19.985Z,0.00
2018-12-07T06:17:19.980Z,0.00
2018-12-07T06:18:19.982Z,0.00
2018-12-07T06:19:19.969Z,0.00
2018-12-07T06:20:19.995Z,0.00
2018-12-07T06:21:19.951Z,0.00
2018-12-07T06:22:19.935Z,0.00
2018-12-07T06:23:19.913Z,0.00
2018-12-07T06:24:19.897Z,0.00
2018-12-07T06:25:19.890Z,0.00
2018-12-07T06:26:19.915Z,0.00
2018-12-07T06:27:19.891Z,0.00
2018-12-07T06:28:19.853Z,0.00
2018-12-07T06:29:19.855Z,0.00
2018-12-07T06:30:19.843Z,4.00
2018-12-07T06:31:19.839Z,4.00
2018-12-07T06:32:19.865Z,4.00
2018-12-07T06:33:19.809Z,4.00
2018-12-07T06:34:19.793Z,4.00
2018-12-07T06:35:19.795Z,8.00
2018-12-07T06:36:19.770Z,8.00
2018-12-07T06:37:19.765Z,4.00
2018-12-07T06:38:19.783Z,8.00
2018-12-07T06:39:19.752Z,8.00
2018-12-07T06:40:19.735Z,8.00
2018-12-07T06:41:19.736Z,8.00
2018-12-07T06:42:19.706Z,12.00
2018-12-07T06:43:19.722Z,12.00
2018-12-07T06:44:19.680Z,16.00
2018-12-07T06:45:19.671Z,16.00
2018-12-07T06:46:19.663Z,20.00
2018-12-07T06:47:19.646Z,20.00
2018-12-07T06:48:19.640Z,20.00
2018-12-07T06:49:19.650Z,20.00
2018-12-07T06:50:19.622Z,24.00
2018-12-07T06:51:19.613Z,28.00
2018-12-07T06:52:19.609Z,32.00
2018-12-07T06:53:19.584Z,32.00
2018-12-07T06:54:19.586Z,40.00
2018-12-07T06:55:19.568Z,40.00
2018-12-07T06:56:19.546Z,44.00
2018-12-07T06:57:19.535Z,48.00
2018-12-07T06:58:19.565Z,48.00
2018-12-07T06:59:19.521Z,48.00
2018-12-07T07:00:19.501Z,48.00
2018-12-07T07:01:19.485Z,60.00
2018-12-07T07:02:19.507Z,64.00
2018-12-07T07:03:19.477Z,72.00
2018-12-07T07:04:19.496Z,76.00
2018-12-07T07:05:19.462Z,92.00
2018-12-07T07:06:19.433Z,100.00
2018-12-07T07:07:19.430Z,92.00
2018-12-07T07:08:19.406Z,96.00
2018-12-07T07:09:19.406Z,108.00
2018-12-07T07:10:19.426Z,108.00
2018-12-07T07:11:19.448Z,100.00
2018-12-07T07:12:19.438Z,108.00
2018-12-07T07:13:19.471Z,132.00
2018-12-07T07:14:19.450Z,128.00
2018-12-07T07:15:19.402Z,148.00
2018-12-07T07:16:23.088Z,168.00
2018-12-07T07:17:19.330Z,172.00
2018-12-07T07:18:19.310Z,200.00
2018-12-07T07:19:19.304Z,204.00
2018-12-07T07:20:19.302Z,180.00
2018-12-07T07:21:19.269Z,216.00
2018-12-07T07:22:19.333Z,240.00
2018-12-07T07:23:19.252Z,272.00
2018-12-07T07:24:19.257Z,256.00
2018-12-07T07:25:19.253Z,260.00
2018-12-07T07:26:19.295Z,316.00
2018-12-07T07:27:19.221Z,288.00
2018-12-07T07:28:19.188Z,336.00
2018-12-07T07:29:19.245Z,368.00
2018-12-07T07:30:19.365Z,392.00
2018-12-07T07:31:19.167Z,404.00
2018-12-07T07:32:19.162Z,412.00
2018-12-07T07:33:19.165Z,408.00
2018-12-07T07:34:19.166Z,440.00
2018-12-07T07:35:19.122Z,480.00
2018-12-07T07:36:19.165Z,484.00
2018-12-07T07:37:19.145Z,468.00
2018-12-07T07:38:19.097Z,496.00
2018-12-07T07:39:19.073Z,496.00
2018-12-07T07:40:19.068Z,616.00
2018-12-07T07:41:19.051Z,708.00
2018-12-07T07:42:19.097Z,628.00
2018-12-07T07:43:19.035Z,620.00
2018-12-07T07:44:19.043Z,648.00
2018-12-07T07:45:19.048Z,772.00
2018-12-07T07:46:19.000Z,636.00
2018-12-07T07:47:18.983Z,716.00
2018-12-07T07:48:19.019Z,664.00
2018-12-07T07:49:18.973Z,648.00
2018-12-07T07:50:18.969Z,664.00
2018-12-07T07:51:18.939Z,696.00
2018-12-07T07:52:18.932Z,688.00
2018-12-07T07:53:18.919Z,712.00
2018-12-07T07:54:18.920Z,804.00
2018-12-07T07:55:18.931Z,868.00
2018-12-07T07:56:18.893Z,900.00
2018-12-07T07:57:18.899Z,956.00
2018-12-07T07:58:18.862Z,1036.00
2018-12-07T07:59:18.856Z,1132.00
2018-12-07T08:00:18.877Z,1144.00
2018-12-07T08:01:18.835Z,1116.00
2018-12-07T08:02:18.833Z,1244.00
2018-12-07T08:03:18.813Z,1240.00
2018-12-07T08:04:18.798Z,1208.00
2018-12-07T08:05:18.815Z,1364.00
2018-12-07T08:06:18.797Z,1332.00
2018-12-07T08:07:18.768Z,1464.00
2018-12-07T08:08:18.775Z,1500.00
2018-12-07T08:09:18.768Z,1552.00
2018-12-07T08:10:18.786Z,1604.00
2018-12-07T08:11:18.721Z,1652.00
2018-12-07T08:12:18.730Z,1684.00
2018-12-07T08:13:18.706Z,1740.00
2018-12-07T08:14:18.691Z,1736.00
2018-12-07T08:15:18.686Z,1776.00
2018-12-07T08:16:18.696Z,1784.00
2018-12-07T08:17:18.664Z,1916.00
2018-12-07T08:18:18.650Z,2028.00
2018-12-07T08:19:18.663Z,2092.00
2018-12-07T08:20:18.683Z,2184.00
2018-12-07T08:21:18.632Z,2204.00
2018-12-07T08:22:18.602Z,2204.00
2018-12-07T08:23:18.609Z,2232.00
2018-12-07T08:24:18.586Z,2316.00
2018-12-07T08:25:18.571Z,2456.00
2018-12-07T08:26:18.588Z,2492.00
2018-12-07T08:27:18.549Z,2428.00
2018-12-07T08:28:18.553Z,2444.00
2018-12-07T08:29:18.532Z,2456.00
2018-12-07T08:30:18.537Z,2400.00
2018-12-07T08:31:18.499Z,2324.00
2018-12-07T08:32:18.492Z,2224.00
2018-12-07T08:33:18.478Z,2152.00
2018-12-07T08:34:18.493Z,2076.00
2018-12-07T08:35:18.671Z,2184.00
2018-12-07T08:36:18.448Z,2356.00
2018-12-07T08:37:18.430Z,2596.00
2018-12-07T08:38:18.425Z,2748.00
2018-12-07T08:39:18.419Z,2976.00
2018-12-07T08:40:18.410Z,3104.00
2018-12-07T08:41:18.451Z,3248.00
2018-12-07T08:42:18.375Z,3180.00
2018-12-07T08:43:18.366Z,2932.00
2018-12-07T08:44:18.356Z,2788.00
2018-12-07T08:45:18.360Z,2816.00
2018-12-07T08:46:18.346Z,2916.00
2018-12-07T08:47:18.350Z,3072.00
2018-12-07T08:48:18.318Z,3292.00
2018-12-07T08:49:18.313Z,3484.00
2018-12-07T08:50:18.300Z,3492.00
2018-12-07T08:51:18.275Z,3432.00
2018-12-07T08:52:18.319Z,3496.00
2018-12-07T08:53:18.266Z,3612.00
2018-12-07T08:54:18.252Z,3684.00
2018-12-07T08:55:18.249Z,3732.00
2018-12-07T08:56:18.221Z,3632.00
2018-12-07T08:57:18.219Z,3528.00
2018-12-07T08:58:18.249Z,3564.00
2018-12-07T08:59:18.194Z,3724.00
2018-12-07T09:00:18.186Z,3712.00
2018-12-07T09:01:18.170Z,3648.00
2018-12-07T09:02:18.157Z,3372.00
2018-12-07T09:03:18.169Z,3196.00
2018-12-07T09:04:18.140Z,2988.00
2018-12-07T09:05:18.115Z,2984.00
2018-12-07T09:06:18.143Z,2744.00
2018-12-07T09:07:18.133Z,2628.00
2018-12-07T09:08:18.108Z,2604.00
2018-12-07T09:09:18.088Z,2576.00
2018-12-07T09:10:18.070Z,2568.00
2018-12-07T09:11:18.076Z,2756.00
2018-12-07T09:12:18.065Z,2668.00
2018-12-07T09:13:18.061Z,2492.00
2018-12-07T09:14:18.038Z,2320.00
2018-12-07T09:15:18.011Z,2332.00
2018-12-07T09:16:18.021Z,2276.00
2018-12-07T09:17:18.024Z,2272.00
2018-12-07T09:18:17.990Z,2360.00
2018-12-07T09:19:18.048Z,2492.00
2018-12-07T09:20:17.974Z,2592.00
2018-12-07T09:21:17.967Z,2564.00
2018-12-07T09:22:17.934Z,2580.00
2018-12-07T09:23:18.018Z,2496.00
2018-12-07T09:24:17.947Z,2536.00
2018-12-07T09:25:17.954Z,2512.00
2018-12-07T09:26:17.962Z,2644.00
2018-12-07T09:27:17.933Z,3160.00
2018-12-07T09:28:17.960Z,3108.00
2018-12-07T09:29:17.851Z,3072.00
2018-12-07T09:30:17.861Z,3328.00
2018-12-07T09:31:17.852Z,3680.00
2018-12-07T09:32:17.833Z,3236.00
2018-12-07T09:33:17.854Z,2700.00
2018-12-07T09:34:17.805Z,2552.00
2018-12-07T09:35:17.787Z,2256.00
2018-12-07T09:36:17.779Z,2092.00
2018-12-07T09:37:17.765Z,2448.00
2018-12-07T09:38:17.780Z,2744.00
2018-12-07T09:39:17.778Z,2476.00
2018-12-07T09:40:17.734Z,2968.00
2018-12-07T09:41:17.727Z,2624.00
2018-12-07T09:42:17.718Z,2144.00
2018-12-07T09:43:17.740Z,2524.00
2018-12-07T09:44:17.718Z,2724.00
2018-12-07T09:45:17.689Z,3044.00
2018-12-07T09:46:17.671Z,2776.00
2018-12-07T09:47:17.655Z,2988.00
2018-12-07T09:48:17.686Z,2744.00
2018-12-07T09:49:17.642Z,2484.00
2018-12-07T09:50:17.635Z,2092.00
2018-12-07T09:51:17.631Z,1956.00
2018-12-07T09:52:17.607Z,1904.00
2018-12-07T09:53:17.617Z,1932.00
2018-12-07T09:54:17.581Z,2244.00
2018-12-07T09:55:17.569Z,2116.00
2018-12-07T09:56:17.564Z,2244.00
2018-12-07T09:57:17.560Z,1904.00
2018-12-07T09:58:17.653Z,2020.00
2018-12-07T09:59:17.517Z,1800.00
2018-12-07T10:00:17.523Z,1932.00
2018-12-07T10:01:18.969Z,2184.00
2018-12-07T10:02:17.501Z,2432.00
2018-12-07T10:03:17.505Z,2388.00
2018-12-07T10:04:17.485Z,2272.00
2018-12-07T10:05:17.465Z,2004.00
2018-12-07T10:06:17.439Z,2336.00
2018-12-07T10:07:17.446Z,2244.00
2018-12-07T10:08:17.521Z,2496.00
2018-12-07T10:09:17.413Z,2804.00
2018-12-07T10:10:17.414Z,3224.00
2018-12-07T10:11:17.400Z,3256.00
2018-12-07T10:12:17.383Z,3408.00
2018-12-07T10:13:17.412Z,3772.00
2018-12-07T10:14:17.364Z,4068.00
2018-12-07T10:15:17.362Z,4216.00
2018-12-07T10:16:17.384Z,4108.00
2018-12-07T10:17:17.362Z,4316.00
2018-12-07T10:18:17.319Z,4448.00
2018-12-07T10:19:17.325Z,4444.00
2018-12-07T10:20:17.291Z,4056.00
2018-12-07T10:21:17.290Z,4372.00
2018-12-07T10:22:17.287Z,4696.00
2018-12-07T10:23:17.269Z,5064.00
2018-12-07T10:24:17.266Z,5024.00
2018-12-07T10:25:17.284Z,4716.00
2018-12-07T10:26:17.220Z,4752.00
2018-12-07T10:27:17.212Z,4580.00
2018-12-07T10:28:17.215Z,4196.00
2018-12-07T10:29:17.206Z,4200.00
2018-12-07T10:30:17.186Z,4368.00
2018-12-07T10:31:17.204Z,4088.00
2018-12-07T10:32:17.151Z,3940.00
2018-12-07T10:33:17.140Z,4116.00
2018-12-07T10:34:17.148Z,4848.00
2018-12-07T10:35:17.155Z,5184.00
2018-12-07T10:36:17.163Z,5116.00
2018-12-07T10:37:17.114Z,4988.00
2018-12-07T10:38:18.841Z,4484.00
2018-12-07T10:39:17.092Z,4228.00
2018-12-07T10:40:17.084Z,3976.00
2018-12-07T10:41:17.068Z,4004.00
2018-12-07T10:42:17.080Z,4020.00
2018-12-07T10:43:17.060Z,4024.00
2018-12-07T10:44:17.042Z,4032.00
2018-12-07T10:45:17.039Z,4072.00
2018-12-07T10:46:17.012Z,3932.00
2018-12-07T10:47:17.019Z,3736.00
2018-12-07T10:48:16.991Z,3852.00
2018-12-07T10:49:16.979Z,3712.00
2018-12-07T10:50:16.973Z,3732.00
2018-12-07T10:51:16.971Z,3784.00
2018-12-07T10:52:16.940Z,3584.00
2018-12-07T10:53:16.922Z,3408.00
2018-12-07T10:54:16.924Z,3332.00
2018-12-07T10:55:16.915Z,3320.00
2018-12-07T10:56:17.204Z,3308.00
2018-12-07T10:57:16.903Z,3228.00
2018-12-07T10:58:16.875Z,3236.00
2018-12-07T10:59:16.861Z,3280.00
2018-12-07T11:00:22.866Z,3336.00
2018-12-07T11:01:17.883Z,3440.00
2018-12-07T11:02:16.830Z,3648.00
2018-12-07T11:03:16.816Z,3868.00
2018-12-07T11:04:16.815Z,4128.00
2018-12-07T11:05:16.789Z,4200.00
2018-12-07T11:06:16.790Z,4392.00
2018-12-07T11:07:16.799Z,4532.00
2018-12-07T11:08:16.772Z,4784.00
2018-12-07T11:09:16.766Z,5176.00
2018-12-07T11:10:16.744Z,5180.00
2018-12-07T11:11:16.735Z,5132.00
2018-12-07T11:12:16.743Z,4964.00
2018-12-07T11:13:16.722Z,4932.00
2018-12-07T11:14:16.708Z,5352.00
2018-12-07T11:15:16.695Z,5848.00
2018-12-07T11:16:16.669Z,6432.00
2018-12-07T11:17:16.699Z,6608.00
2018-12-07T11:18:16.662Z,6624.00
2018-12-07T11:19:16.659Z,6820.00
2018-12-07T11:20:16.644Z,6480.00
2018-12-07T11:21:16.638Z,6144.00
2018-12-07T11:22:16.606Z,6120.00
2018-12-07T11:23:16.615Z,6048.00
2018-12-07T11:24:16.583Z,6064.00
2018-12-07T11:25:16.586Z,5756.00
2018-12-07T11:26:16.575Z,5460.00
2018-12-07T11:27:16.580Z,4988.00
2018-12-07T11:28:16.649Z,4832.00
2018-12-07T11:29:16.534Z,4488.00
2018-12-07T11:30:16.535Z,3888.00
2018-12-07T11:31:16.517Z,3572.00
2018-12-07T11:32:16.509Z,3264.00
2018-12-07T11:33:16.522Z,3040.00
2018-12-07T11:34:16.501Z,2900.00
2018-12-07T11:35:16.468Z,2872.00
2018-12-07T11:36:16.458Z,2836.00
2018-12-07T11:37:16.451Z,2752.00
2018-12-07T11:38:16.466Z,2716.00
2018-12-07T11:39:16.445Z,2644.00
2018-12-07T11:40:16.414Z,2556.00
2018-12-07T11:41:16.401Z,2572.00
2018-12-07T11:42:16.397Z,2696.00
2018-12-07T11:43:16.381Z,2776.00
2018-12-07T11:44:16.396Z,2780.00
2018-12-07T11:45:16.371Z,2868.00
2018-12-07T11:46:16.412Z,3032.00
2018-12-07T11:47:16.351Z,3068.00
2018-12-07T11:48:16.321Z,2952.00
2018-12-07T11:49:16.316Z,2944.00
2018-12-07T11:50:16.324Z,2832.00
2018-12-07T11:51:16.304Z,2700.00
2018-12-07T11:52:16.285Z,2884.00
2018-12-07T11:53:16.283Z,3128.00
2018-12-07T11:54:16.265Z,3232.00
2018-12-07T11:55:16.305Z,3144.00
2018-12-07T11:56:16.274Z,2824.00
2018-12-07T11:57:16.235Z,2588.00
2018-12-07T11:58:16.229Z,1952.00
2018-12-07T11:59:16.213Z,2400.00
2018-12-07T12:00:16.236Z,2296.00
2018-12-07T12:01:16.429Z,2260.00
2018-12-07T12:02:16.170Z,2136.00
2018-12-07T12:03:16.164Z,2528.00
2018-12-07T12:04:16.160Z,2228.00
2018-12-07T12:05:16.150Z,1972.00
2018-12-07T12:06:16.149Z,1772.00
2018-12-07T12:07:16.113Z,1672.00
2018-12-07T12:08:16.097Z,1656.00
2018-12-07T12:09:16.090Z,1892.00
2018-12-07T12:10:16.088Z,1748.00
2018-12-07T12:11:16.098Z,1644.00
2018-12-07T12:12:16.064Z,1528.00
2018-12-07T12:13:16.056Z,1612.00
2018-12-07T12:14:16.033Z,1804.00
2018-12-07T12:15:16.028Z,1688.00
2018-12-07T12:16:16.008Z,1704.00
2018-12-07T12:17:16.048Z,1740.00
2018-12-07T12:18:16.002Z,1864.00
2018-12-07T12:19:15.986Z,1592.00
2018-12-07T12:20:15.960Z,1652.00
2018-12-07T12:21:15.959Z,1708.00
2018-12-07T12:22:15.980Z,1832.00
2018-12-07T12:23:15.945Z,1728.00
2018-12-07T12:24:15.925Z,1668.00
2018-12-07T12:25:15.918Z,1716.00
2018-12-07T12:26:15.896Z,1636.00
2018-12-07T12:27:15.902Z,1492.00
2018-12-07T12:28:15.898Z,1900.00
2018-12-07T12:29:15.958Z,2056.00
2018-12-07T12:30:17.848Z,1868.00
2018-12-07T12:31:15.901Z,1976.00
2018-12-07T12:32:15.857Z,1936.00
2018-12-07T12:33:15.910Z,1916.00
2018-12-07T12:34:15.918Z,1844.00
2018-12-07T12:35:15.840Z,1712.00
2018-12-07T12:36:17.149Z,1680.00
2018-12-07T12:37:15.836Z,1704.00
2018-12-07T12:38:15.821Z,1872.00
2018-12-07T12:39:15.783Z,2120.00
2018-12-07T12:40:15.759Z,2028.00
2018-12-07T12:41:15.756Z,2000.00
2018-12-07T12:42:15.778Z,1956.00
2018-12-07T12:43:15.739Z,2104.00
2018-12-07T12:44:15.791Z,2320.00
2018-12-07T12:45:15.748Z,2232.00